createdAt,value
2024-05-09T00:01:33.379Z,6.20
2024-05-09T00:04:03.948Z,6.20
2024-05-09T00:16:40.472Z,5.80
2024-05-09T00:19:11.140Z,5.80
2024-05-09T00:21:45.058Z,5.40
2024-05-09T00:29:18.667Z,5.50
2024-05-09T00:31:51.843Z,5.50
2024-05-09T00:39:24.550Z,5.40
2024-05-09T00:46:59.497Z,5.30
2024-05-09T00:52:02.626Z,5.20
2024-05-09T00:54:33.955Z,5.20
2024-05-09T00:57:06.040Z,5.10
2024-05-09T00:59:37.109Z,5.00
2024-05-09T01:02:15.366Z,4.90
2024-05-09T01:04:46.054Z,4.90
2024-05-09T01:09:47.879Z,4.80
2024-05-09T01:14:49.616Z,4.70
2024-05-09T01:17:23.258Z,4.70
2024-05-09T01:19:54.307Z,5.30
2024-05-09T01:22:27.683Z,2.20
2024-05-09T01:25:00.941Z,4.80
2024-05-09T01:27:31.880Z,2.80
2024-05-09T01:30:04.081Z,4.70
2024-05-09T01:32:37.858Z,4.60
2024-05-09T01:35:10.202Z,4.50
2024-05-09T01:37:40.488Z,4.40
2024-05-09T01:40:18.584Z,4.50
2024-05-09T01:42:52.858Z,4.30
2024-05-09T01:45:23.168Z,4.30
2024-05-09T01:47:54.341Z,4.30
2024-05-09T01:50:36.198Z,4.40
2024-05-09T01:53:10.878Z,4.10
2024-05-09T01:55:47.713Z,4.00
2024-05-09T01:58:18.949Z,4.30
2024-05-09T02:05:52.617Z,4.00
2024-05-09T02:08:24.641Z,3.90
2024-05-09T02:10:58.213Z,3.80
2024-05-09T02:21:01.500Z,3.80
2024-05-09T02:26:05.889Z,2.50
2024-05-09T02:36:10.602Z,3.60
2024-05-09T02:41:12.758Z,3.50
2024-05-09T02:56:13.679Z,3.80
2024-05-09T03:03:45.491Z,3.70
2024-05-09T03:08:45.567Z,3.90
2024-05-09T03:11:27.046Z,3.90
2024-05-09T03:18:55.253Z,4.10
2024-05-09T03:23:53.824Z,4.20
2024-05-09T03:26:27.291Z,4.20
2024-05-09T03:33:54.603Z,4.00
2024-05-09T03:41:29.489Z,3.90
2024-05-09T03:48:56.658Z,4.10
2024-05-09T03:51:27.331Z,4.20
2024-05-09T03:53:55.851Z,4.30
2024-05-09T03:56:29.456Z,4.50
2024-05-09T04:03:58.279Z,4.60
2024-05-09T04:06:29.661Z,4.80
2024-05-09T04:08:57.309Z,4.60
2024-05-09T04:11:30.474Z,4.80
2024-05-09T04:13:58.347Z,4.90
2024-05-09T04:16:28.779Z,5.00
2024-05-09T04:18:56.825Z,5.20
2024-05-09T04:23:57.025Z,5.30
2024-05-09T04:26:30.410Z,5.40
2024-05-09T04:28:58.423Z,5.50
2024-05-09T04:31:29.578Z,5.50
2024-05-09T04:33:57.605Z,5.40
2024-05-09T04:43:57.860Z,7.90
2024-05-09T04:48:59.732Z,6.10
2024-05-09T04:51:41.540Z,4.40
2024-05-09T04:59:24.708Z,6.40
2024-05-09T05:04:23.831Z,6.70
2024-05-09T05:09:28.871Z,6.90
2024-05-09T05:14:30.791Z,7.20
2024-05-09T05:24:28.569Z,7.50
2024-05-09T05:32:01.132Z,7.90
2024-05-09T05:34:29.242Z,8.00
2024-05-09T05:37:00.755Z,8.00
2024-05-09T05:41:59.553Z,7.50
2024-05-09T05:47:03.488Z,8.60
2024-05-09T05:57:20.382Z,8.70
2024-05-09T06:02:22.235Z,9.10
2024-05-09T06:09:52.418Z,9.40
2024-05-09T06:17:53.116Z,10.10
2024-05-09T06:23:05.048Z,10.80
2024-05-09T06:33:49.042Z,10.60
2024-05-09T06:41:24.328Z,11.10
2024-05-09T06:46:46.704Z,11.50
2024-05-09T06:49:17.863Z,11.70
2024-05-09T06:54:18.671Z,11.60
2024-05-09T07:04:29.787Z,11.80
2024-05-09T07:12:13.695Z,12.60
2024-05-09T07:17:15.529Z,12.90
2024-05-09T07:19:46.346Z,13.20
2024-05-09T07:24:53.119Z,13.30
2024-05-09T07:34:59.566Z,14.10
2024-05-09T07:42:39.325Z,14.80
2024-05-09T07:45:43.030Z,15.20
2024-05-09T07:53:00.828Z,13.10
2024-05-09T07:54:17.402Z,15.10
2024-05-09T07:56:56.482Z,15.70
2024-05-09T07:59:27.212Z,15.90
2024-05-09T08:01:58.048Z,15.30
2024-05-09T08:05:32.576Z,16.10
2024-05-09T08:08:36.375Z,15.00
2024-05-09T08:11:55.208Z,16.90
2024-05-09T08:14:36.250Z,17.00
2024-05-09T08:17:13.655Z,15.50
2024-05-09T08:19:46.513Z,17.00
2024-05-09T08:22:32.364Z,17.10
2024-05-09T08:25:14.663Z,17.30
2024-05-09T08:27:52.948Z,18.20
2024-05-09T08:30:36.835Z,18.20
2024-05-09T08:33:11.529Z,18.60
2024-05-09T08:35:39.536Z,18.40
2024-05-09T08:38:21.247Z,18.60
2024-05-09T08:41:05.350Z,18.70
2024-05-09T08:43:46.633Z,19.20
2024-05-09T08:46:31.916Z,19.10
2024-05-09T08:49:15.655Z,18.40
2024-05-09T08:51:44.147Z,18.90
2024-05-09T08:54:14.950Z,19.70
2024-05-09T08:56:54.845Z,20.10
2024-05-09T08:59:39.556Z,21.30
2024-05-09T09:02:32.741Z,22.70
2024-05-09T09:05:08.152Z,22.70
2024-05-09T09:07:43.209Z,21.80
2024-05-09T09:10:24.910Z,22.50
2024-05-09T09:13:12.809Z,22.90
2024-05-09T09:15:52.435Z,22.90
2024-05-09T09:18:43.681Z,23.60
2024-05-09T09:21:16.419Z,24.40
2024-05-09T09:23:47.377Z,23.00
2024-05-09T09:26:28.998Z,24.70
2024-05-09T09:32:23.117Z,25.40
2024-05-09T09:34:55.098Z,26.20
2024-05-09T09:37:33.437Z,26.30
2024-05-09T09:40:04.743Z,27.30
2024-05-09T09:42:49.041Z,24.80
2024-05-09T09:45:37.958Z,28.30
2024-05-09T09:48:37.469Z,28.50
2024-05-09T09:51:47.150Z,28.40
2024-05-09T09:54:36.253Z,27.50
2024-05-09T09:57:23.569Z,28.50
2024-05-09T10:00:33.453Z,27.70
2024-05-09T10:03:24.271Z,26.70
2024-05-09T10:06:19.984Z,26.50
2024-05-09T10:09:26.733Z,27.20
2024-05-09T10:12:22.301Z,26.80
2024-05-09T10:15:22.944Z,29.00
2024-05-09T10:18:44.728Z,29.60
2024-05-09T10:21:20.564Z,30.50
2024-05-09T10:24:24.480Z,27.20
2024-05-09T10:27:39.256Z,29.70
2024-05-09T10:33:37.703Z,29.50
2024-05-09T10:37:31.828Z,29.80
2024-05-09T10:42:29.017Z,28.90
2024-05-09T10:52:09.813Z,24.80
2024-05-09T10:55:05.674Z,25.40
2024-05-09T10:58:16.888Z,25.90
2024-05-09T11:01:07.376Z,26.00
2024-05-09T11:04:03.301Z,27.60
2024-05-09T11:06:47.454Z,24.90
2024-05-09T11:09:47.520Z,25.20
2024-05-09T11:12:24.359Z,27.70
2024-05-09T11:15:10.236Z,27.30
2024-05-09T11:18:07.566Z,28.80
2024-05-09T11:20:46.903Z,28.80
2024-05-09T11:23:34.196Z,28.10
2024-05-09T11:26:45.619Z,29.70
2024-05-09T11:29:53.762Z,29.00
2024-05-09T11:33:04.510Z,29.30
2024-05-09T11:36:36.262Z,30.10
2024-05-09T11:43:39.989Z,27.20
2024-05-09T11:46:57.842Z,25.70
2024-05-09T11:49:56.794Z,27.60
2024-05-09T11:52:49.394Z,29.00
2024-05-09T12:00:07.349Z,31.20
2024-05-09T12:01:48.788Z,29.90
2024-05-09T12:02:59.791Z,26.30
2024-05-09T12:06:06.963Z,24.40
2024-05-09T12:08:42.879Z,26.70
2024-05-09T12:11:30.016Z,27.40
2024-05-09T12:14:02.691Z,29.80
2024-05-09T12:16:56.257Z,26.30
2024-05-09T12:19:27.126Z,25.60
2024-05-09T12:21:59.122Z,23.50
2024-05-09T12:24:32.424Z,22.30
2024-05-09T12:27:06.280Z,21.50
2024-05-09T12:29:38.935Z,22.10
2024-05-09T12:32:20.189Z,23.40
2024-05-09T12:34:56.084Z,24.70
2024-05-09T12:37:40.339Z,23.50
2024-05-09T12:40:23.078Z,25.20
2024-05-09T12:43:19.338Z,24.50
2024-05-09T12:45:53.660Z,25.20
2024-05-09T12:48:31.271Z,23.40
2024-05-09T12:51:33.220Z,24.50
2024-05-09T12:54:35.408Z,22.40
2024-05-09T12:57:22.476Z,23.10
2024-05-09T13:00:20.720Z,23.00
2024-05-09T13:03:29.566Z,22.30
2024-05-09T13:06:52.488Z,23.60
2024-05-09T13:17:05.385Z,28.10
2024-05-09T13:20:23.003Z,26.50
2024-05-09T13:23:43.970Z,28.90
2024-05-09T13:30:43.262Z,30.10
2024-05-09T13:44:55.218Z,29.10
2024-05-09T13:47:25.897Z,26.20
2024-05-09T13:49:56.550Z,27.00
2024-05-09T13:52:24.742Z,25.80
2024-05-09T13:54:55.239Z,27.50
2024-05-09T13:57:23.015Z,25.00
2024-05-09T13:59:53.516Z,25.20
2024-05-09T14:02:21.493Z,26.00
2024-05-09T14:04:54.605Z,27.00
2024-05-09T14:07:25.329Z,26.70
2024-05-09T14:09:53.516Z,26.40
2024-05-09T14:12:23.796Z,25.50
2024-05-09T14:14:51.532Z,25.30
2024-05-09T14:17:24.840Z,24.50
2024-05-09T14:19:55.291Z,24.20
2024-05-09T14:22:25.803Z,25.30
2024-05-09T14:24:53.564Z,24.80
2024-05-09T14:27:24.327Z,24.90
2024-05-09T14:29:52.101Z,25.20
2024-05-09T14:32:22.741Z,26.20
2024-05-09T14:34:50.600Z,24.90
2024-05-09T14:37:23.623Z,25.50
2024-05-09T14:39:51.296Z,24.50
2024-05-09T14:44:51.543Z,23.50
2024-05-09T14:47:21.582Z,24.30
2024-05-09T14:49:52.149Z,23.50
2024-05-09T14:52:22.696Z,24.00
2024-05-09T14:55:00.015Z,24.70
2024-05-09T14:57:28.804Z,25.30
2024-05-09T14:59:59.152Z,27.00
2024-05-09T15:02:27.107Z,24.10
2024-05-09T15:04:57.489Z,22.90
2024-05-09T15:07:28.061Z,23.50
2024-05-09T15:09:59.160Z,23.00
2024-05-09T15:12:26.918Z,22.20
2024-05-09T15:14:57.209Z,21.00
2024-05-09T15:17:25.084Z,21.00
2024-05-09T15:19:55.572Z,21.80
2024-05-09T15:22:23.422Z,22.60
2024-05-09T15:24:56.464Z,22.40
2024-05-09T15:27:24.179Z,23.40
2024-05-09T15:29:54.768Z,23.10
2024-05-09T15:32:29.717Z,22.50
2024-05-09T15:35:00.317Z,22.30
2024-05-09T15:37:28.062Z,21.80
2024-05-09T15:40:01.808Z,21.70
2024-05-09T15:42:29.724Z,21.70
2024-05-09T15:45:01.041Z,21.90
2024-05-09T15:47:28.899Z,21.90
2024-05-09T15:50:01.655Z,21.50
2024-05-09T15:52:29.524Z,21.20
2024-05-09T15:55:02.740Z,21.60
2024-05-09T15:57:30.805Z,21.50
2024-05-09T16:00:01.275Z,21.10
2024-05-09T16:02:30.108Z,20.10
2024-05-09T16:05:01.092Z,19.50
2024-05-09T16:07:30.914Z,19.30
2024-05-09T16:10:06.724Z,19.20
2024-05-09T16:12:34.918Z,19.50
2024-05-09T16:15:05.460Z,19.10
2024-05-09T16:17:33.413Z,19.40
2024-05-09T16:20:08.931Z,19.30
2024-05-09T16:22:39.950Z,19.30
2024-05-09T16:25:13.120Z,18.70
2024-05-09T16:27:41.432Z,18.50
2024-05-09T16:30:20.840Z,18.80
2024-05-09T16:32:53.560Z,19.00
2024-05-09T16:35:23.902Z,18.70
2024-05-09T16:37:51.953Z,18.50
2024-05-09T16:40:36.288Z,18.10
2024-05-09T16:43:11.310Z,17.90
2024-05-09T16:45:41.139Z,17.80
2024-05-09T16:48:13.360Z,17.70
2024-05-09T16:50:41.202Z,17.60
2024-05-09T16:53:11.505Z,17.60
2024-05-09T16:55:41.930Z,17.60
2024-05-09T16:58:12.833Z,17.60
2024-05-09T17:00:43.342Z,17.40
2024-05-09T17:03:16.634Z,17.10
2024-05-09T17:05:47.246Z,17.00
2024-05-09T17:08:20.127Z,17.10
2024-05-09T17:10:51.285Z,17.10
2024-05-09T17:13:22.925Z,16.90
2024-05-09T17:15:53.967Z,16.90
2024-05-09T17:18:24.828Z,16.80
2024-05-09T17:20:55.354Z,16.70
2024-05-09T17:23:23.135Z,16.50
2024-05-09T17:25:57.096Z,16.10
2024-05-09T17:28:25.067Z,15.70
2024-05-09T17:30:55.443Z,15.60
2024-05-09T17:33:24.928Z,15.60
2024-05-09T17:35:55.643Z,15.50
2024-05-09T17:38:23.990Z,15.30
2024-05-09T17:40:57.465Z,15.20
2024-05-09T17:43:25.621Z,15.00
2024-05-09T17:45:56.115Z,14.90
2024-05-09T17:48:23.921Z,14.80
2024-05-09T17:50:55.984Z,14.60
2024-05-09T17:53:23.644Z,14.50
2024-05-09T17:55:56.688Z,14.40
2024-05-09T17:58:27.646Z,14.40
2024-05-09T18:00:58.266Z,14.40
2024-05-09T18:03:26.417Z,14.30
2024-05-09T18:05:57.034Z,14.20
2024-05-09T18:08:25.160Z,14.00
2024-05-09T18:10:58.548Z,13.90
2024-05-09T18:13:27.186Z,13.70
2024-05-09T18:15:57.859Z,13.60
2024-05-09T18:18:30.278Z,13.50
2024-05-09T18:21:00.941Z,13.30
2024-05-09T18:23:28.713Z,13.10
2024-05-09T18:26:02.421Z,13.00
2024-05-09T18:28:30.564Z,12.80
2024-05-09T18:31:00.856Z,12.60
2024-05-09T18:33:28.727Z,12.50
2024-05-09T18:35:59.414Z,12.30
2024-05-09T18:38:27.366Z,12.20
2024-05-09T18:41:00.624Z,12.20
2024-05-09T18:43:37.997Z,12.20
2024-05-09T18:46:15.557Z,12.30
2024-05-09T18:48:43.773Z,12.30
2024-05-09T18:51:14.773Z,12.10
2024-05-09T18:53:44.655Z,12.00
2024-05-09T18:56:18.562Z,11.80
2024-05-09T18:58:47.138Z,11.60
2024-05-09T19:01:17.458Z,13.10
2024-05-09T19:03:45.462Z,11.40
2024-05-09T19:06:16.129Z,11.30
2024-05-09T19:08:43.830Z,11.20
2024-05-09T19:11:17.364Z,11.10
2024-05-09T19:13:45.271Z,11.00
2024-05-09T19:16:15.969Z,10.90
2024-05-09T19:18:54.935Z,10.70
2024-05-09T19:21:24.200Z,10.60
2024-05-09T19:23:59.010Z,10.50
2024-05-09T19:26:30.173Z,10.40
2024-05-09T19:29:00.760Z,10.30
2024-05-09T19:31:31.429Z,10.30
2024-05-09T19:34:02.284Z,10.20
2024-05-09T19:36:30.376Z,10.00
2024-05-09T19:39:01.351Z,9.90
2024-05-09T19:41:32.043Z,9.70
2024-05-09T19:44:02.586Z,9.60
2024-05-09T19:46:32.906Z,9.50
2024-05-09T19:49:07.285Z,10.60
2024-05-09T19:51:35.542Z,9.20
2024-05-09T19:54:06.115Z,9.10
2024-05-09T19:56:44.633Z,9.00
2024-05-09T19:59:15.476Z,8.90
2024-05-09T20:01:43.275Z,8.90
2024-05-09T20:04:13.756Z,8.80
2024-05-09T20:06:42.524Z,8.70
2024-05-09T20:09:13.012Z,8.70
2024-05-09T20:11:43.907Z,8.70
2024-05-09T20:14:15.845Z,8.70
2024-05-09T20:16:45.125Z,8.60
2024-05-09T20:19:18.369Z,8.50
2024-05-09T20:21:46.157Z,8.40
2024-05-09T20:24:16.953Z,8.30
2024-05-09T20:26:47.573Z,8.30
2024-05-09T20:29:18.636Z,8.20
2024-05-09T20:31:46.371Z,8.20
2024-05-09T20:34:16.774Z,8.20
2024-05-09T20:36:44.403Z,8.20
2024-05-09T20:39:14.686Z,8.10
2024-05-09T20:41:46.657Z,8.10
2024-05-09T20:44:17.374Z,8.00
2024-05-09T20:46:45.547Z,7.90
2024-05-09T20:49:17.086Z,7.70
2024-05-09T20:51:45.244Z,7.60
2024-05-09T20:54:15.646Z,7.50
2024-05-09T20:56:50.994Z,7.40
2024-05-09T20:59:24.203Z,7.30
2024-05-09T21:01:57.251Z,7.20
2024-05-09T21:04:27.978Z,7.10
2024-05-09T21:06:55.921Z,7.00
2024-05-09T21:09:26.291Z,7.00
2024-05-09T21:11:54.293Z,6.90
2024-05-09T21:14:27.459Z,6.90
2024-05-09T21:16:55.379Z,6.90
2024-05-09T21:19:26.149Z,6.90
2024-05-09T21:21:54.039Z,6.90
2024-05-09T21:24:24.516Z,6.90
2024-05-09T21:26:52.719Z,7.00
2024-05-09T21:29:23.262Z,7.00
2024-05-09T21:31:53.808Z,7.00
2024-05-09T21:34:24.556Z,6.80
2024-05-09T21:36:52.372Z,7.00
2024-05-09T21:39:23.854Z,6.50
2024-05-09T21:41:51.900Z,6.50
2024-05-09T21:44:25.079Z,6.40
2024-05-09T21:46:55.476Z,6.30
2024-05-09T21:49:25.770Z,6.20
2024-05-09T21:51:55.011Z,6.10
2024-05-09T21:54:25.371Z,4.30
2024-05-09T21:56:55.249Z,5.90
2024-05-09T21:59:27.862Z,5.90
2024-05-09T22:01:58.932Z,5.80
2024-05-09T22:04:29.552Z,5.70
2024-05-09T22:06:57.350Z,5.50
2024-05-09T22:09:27.951Z,5.40
2024-05-09T22:11:57.569Z,5.30
2024-05-09T22:14:28.535Z,5.20
2024-05-09T22:16:58.863Z,5.30
2024-05-09T22:19:29.991Z,5.20
2024-05-09T22:21:57.755Z,5.20
2024-05-09T22:24:28.068Z,5.10
2024-05-09T22:26:55.718Z,5.00
2024-05-09T22:29:25.977Z,5.00
2024-05-09T22:31:53.798Z,4.90
2024-05-09T22:34:26.981Z,5.30
2024-05-09T22:36:54.777Z,4.90
2024-05-09T22:39:25.676Z,4.90
2024-05-09T22:41:54.097Z,4.90
2024-05-09T22:44:24.578Z,4.90
2024-05-09T22:46:58.436Z,4.80
2024-05-09T22:49:31.683Z,4.70
2024-05-09T22:51:59.676Z,4.20
2024-05-09T22:54:30.030Z,4.70
2024-05-09T22:56:58.032Z,4.70
2024-05-09T22:59:28.217Z,4.60
2024-05-09T23:01:55.898Z,4.70
2024-05-09T23:04:26.379Z,4.70
2024-05-09T23:06:56.686Z,4.60
2024-05-09T23:09:33.532Z,4.60
2024-05-09T23:12:01.523Z,4.50
2024-05-09T23:14:31.705Z,4.40
2024-05-09T23:16:59.525Z,4.30
2024-05-09T23:19:29.890Z,4.20
2024-05-09T23:22:00.826Z,4.10
2024-05-09T23:24:32.568Z,4.10
2024-05-09T23:27:00.089Z,4.00
2024-05-09T23:29:30.417Z,4.10
2024-05-09T23:31:58.208Z,4.00
2024-05-09T23:34:28.616Z,4.00
2024-05-09T23:36:56.496Z,4.00
2024-05-09T23:39:29.508Z,3.90
2024-05-09T23:41:57.269Z,3.80
2024-05-09T23:44:27.679Z,3.70
2024-05-09T23:46:55.322Z,3.70
2024-05-09T23:49:25.658Z,3.70
2024-05-09T23:51:53.662Z,3.60
2024-05-09T23:54:24.142Z,3.60
2024-05-09T23:56:54.595Z,3.60
2024-05-09T23:59:36.381Z,3.60
